This is the latest recevied weather packets stored in our database for station/object JH7UAX-10. If no packets are shown the sender has not sent any weather packets the latest 1 day(s).
| Time | Temp. | Humidity | Pressure | Rain* | Wind** | Luminosity | Snow |
|---|---|---|---|---|---|---|---|
| 1778035078 | 21.11° C | 49% | 1030.7 hPa | 0 mm | - | - | - |
| 1778034180 | 21.67° C | 49% | 1031 hPa | 0 mm | - | - | - |
| 1778033280 | 21.11° C | 50% | 1031.1 hPa | 0 mm | - | - | - |
| 1778032379 | 21.11° C | 46% | 1031.1 hPa | 0 mm | - | - | - |
| 1778031479 | 20.56° C | 47% | 1031.2 hPa | 0 mm | - | - | - |
| 1778030579 | 20.56° C | 49% | 1031.2 hPa | 0 mm | - | - | - |
| 1778029678 | 20.56° C | 46% | 1031.2 hPa | 0 mm | - | - | - |
| 1778028778 | 20.56° C | 46% | 1031.4 hPa | 0 mm | - | - | - |
| 1778028306 | 20.56° C | 47% | 1031.5 hPa | 0 mm | - | - | - |
| 1778027878 | 20.56° C | 47% | 1031.5 hPa | 0 mm | - | - | - |
| 1778026980 | 20.56° C | 46% | 1031.4 hPa | 0 mm | - | - | - |
| 1778024705 | 20.56° C | 48% | 1031.3 hPa | 0 mm | - | - | - |
| 1778024279 | 20.56° C | 48% | 1031.3 hPa | 0 mm | - | - | - |
| 1778023379 | 20.56° C | 48% | 1031.4 hPa | 0 mm | - | - | - |
| 1778022907 | 20° C | 48% | 1031.4 hPa | 0 mm | - | - | - |
| 1778020206 | 17.78° C | 53% | 1031.8 hPa | 0 mm | - | - | - |
| 1778019780 | 17.22° C | 51% | 1031.8 hPa | 0 mm | - | - | - |
| 1778016179 | 13.33° C | 57% | 1031.7 hPa | 0 mm | - | - | - |
| 1778013479 | 9.44° C | 69% | 1031.2 hPa | 0 mm | - | - | - |
| 1778012580 | 8.89° C | 72% | 1031.2 hPa | 0 mm | - | - | - |
* Rain latest hour (hover to see other rain measurements)
** Current wind speed in m/s (hover to see current wind gust speed)